createdAt,value
2023-01-29T00:01:08.193Z,1012.52
2023-01-29T00:01:12.940Z,1012.50
2023-01-29T00:02:12.971Z,1012.53
2023-01-29T00:03:12.981Z,1012.58
2023-01-29T00:04:12.910Z,1012.57
2023-01-29T00:05:26.984Z,1012.58
2023-01-29T00:06:13.881Z,1012.58
2023-01-29T00:07:12.884Z,1012.62
2023-01-29T00:08:12.869Z,1012.64
2023-01-29T00:09:12.852Z,1012.60
2023-01-29T00:10:12.850Z,1012.61
2023-01-29T00:11:12.820Z,1012.62
2023-01-29T00:12:12.854Z,1012.65
2023-01-29T00:13:12.805Z,1012.62
2023-01-29T00:14:12.812Z,1012.62
2023-01-29T00:15:12.775Z,1012.61
2023-01-29T00:16:12.775Z,1012.56
2023-01-29T00:17:12.834Z,1012.57
2023-01-29T00:18:12.742Z,1012.53
2023-01-29T00:19:12.714Z,1012.44
2023-01-29T00:20:12.716Z,1012.45
2023-01-29T00:21:12.709Z,1012.45
2023-01-29T00:22:12.694Z,1012.43
2023-01-29T00:23:12.686Z,1012.40
2023-01-29T00:24:12.695Z,1012.38
2023-01-29T00:25:12.646Z,1012.42
2023-01-29T00:26:12.638Z,1012.42
2023-01-29T00:27:12.635Z,1012.45
2023-01-29T00:28:13.101Z,1012.47
2023-01-29T00:29:12.594Z,1012.43
2023-01-29T00:30:12.586Z,1012.38
2023-01-29T00:31:12.673Z,1012.37
2023-01-29T00:32:12.699Z,1012.41
2023-01-29T00:33:12.544Z,1012.42
2023-01-29T00:34:12.551Z,1012.46
2023-01-29T00:35:12.510Z,1012.49
2023-01-29T00:36:12.525Z,1012.47
2023-01-29T00:37:12.754Z,1012.48
2023-01-29T00:38:12.477Z,1012.45
2023-01-29T00:39:12.475Z,1012.45
2023-01-29T00:40:12.459Z,1012.46
2023-01-29T00:41:12.444Z,1012.42
2023-01-29T00:42:12.440Z,1012.43
2023-01-29T00:43:12.435Z,1012.40
2023-01-29T00:44:12.407Z,1012.40
2023-01-29T00:45:12.396Z,1012.38
2023-01-29T00:46:12.407Z,1012.37
2023-01-29T00:47:12.385Z,1012.37
2023-01-29T00:48:12.353Z,1012.39
2023-01-29T00:49:12.346Z,1012.41
2023-01-29T00:50:12.344Z,1012.40
2023-01-29T00:51:12.338Z,1012.45
2023-01-29T00:52:12.335Z,1012.41
2023-01-29T00:53:12.313Z,1012.45
2023-01-29T00:54:12.293Z,1012.39
2023-01-29T00:55:12.286Z,1012.42
2023-01-29T00:56:12.258Z,1012.45
2023-01-29T00:57:12.293Z,1012.45
2023-01-29T00:58:12.227Z,1012.43
2023-01-29T00:59:12.228Z,1012.36
2023-01-29T01:00:12.220Z,1012.39
2023-01-29T01:01:12.210Z,1012.38
2023-01-29T01:02:12.230Z,1012.37
2023-01-29T01:03:12.190Z,1012.35
2023-01-29T01:04:12.413Z,1012.36
2023-01-29T01:05:12.152Z,1012.34
2023-01-29T01:06:12.138Z,1012.33
2023-01-29T01:07:17.371Z,1012.32
2023-01-29T01:08:12.118Z,1012.32
2023-01-29T01:09:12.090Z,1012.28
2023-01-29T01:10:12.108Z,1012.31
2023-01-29T01:11:12.068Z,1012.27
2023-01-29T01:12:12.118Z,1012.27
2023-01-29T01:13:12.042Z,1012.22
2023-01-29T01:14:12.062Z,1012.20
2023-01-29T01:15:12.023Z,1012.25
2023-01-29T01:16:12.290Z,1012.23
2023-01-29T01:17:12.012Z,1012.25
2023-01-29T01:18:11.981Z,1012.22
2023-01-29T01:19:11.975Z,1012.18
2023-01-29T01:20:12.220Z,1012.22
2023-01-29T01:21:11.949Z,1012.23
2023-01-29T01:22:11.956Z,1012.20
2023-01-29T01:23:11.922Z,1012.20
2023-01-29T01:24:11.933Z,1012.22
2023-01-29T01:25:11.902Z,1012.23
2023-01-29T01:26:11.906Z,1012.25
2023-01-29T01:27:11.892Z,1012.22
2023-01-29T01:28:11.879Z,1012.19
2023-01-29T01:29:11.845Z,1012.17
2023-01-29T01:30:11.833Z,1012.23
2023-01-29T01:31:11.890Z,1012.30
2023-01-29T01:32:11.840Z,1012.25
2023-01-29T01:33:11.802Z,1012.24
2023-01-29T01:34:11.793Z,1012.22
2023-01-29T01:35:11.770Z,1012.18
2023-01-29T01:36:11.768Z,1012.16
2023-01-29T01:37:11.777Z,1012.11
2023-01-29T01:38:11.746Z,1012.12
2023-01-29T01:39:11.722Z,1012.11
2023-01-29T01:40:11.719Z,1012.09
2023-01-29T01:41:11.935Z,1012.06
2023-01-29T01:42:11.717Z,1012.08
2023-01-29T01:43:11.673Z,1012.04
2023-01-29T01:44:11.663Z,1012.02
2023-01-29T01:45:11.874Z,1011.98
2023-01-29T01:46:11.699Z,1011.94
2023-01-29T01:47:11.623Z,1011.97
2023-01-29T01:48:11.632Z,1011.92
2023-01-29T01:49:11.608Z,1011.90
2023-01-29T01:50:11.597Z,1011.88
2023-01-29T01:51:11.591Z,1011.92
2023-01-29T01:52:11.573Z,1011.89
2023-01-29T01:53:11.799Z,1011.94
2023-01-29T01:54:11.534Z,1011.86
2023-01-29T01:55:11.535Z,1011.86
2023-01-29T01:56:11.522Z,1011.84
2023-01-29T01:57:11.516Z,1011.83
2023-01-29T01:58:11.500Z,1011.79
2023-01-29T01:59:11.494Z,1011.80
2023-01-29T02:00:11.589Z,1011.81
2023-01-29T02:01:11.505Z,1011.80
2023-01-29T02:02:11.503Z,1011.75
2023-01-29T02:03:11.429Z,1011.80
2023-01-29T02:04:11.421Z,1011.81
2023-01-29T02:05:11.398Z,1011.83
2023-01-29T02:06:11.416Z,1011.85
2023-01-29T02:07:11.397Z,1011.90
2023-01-29T02:08:11.378Z,1011.90
2023-01-29T02:09:11.360Z,1011.96
2023-01-29T02:10:12.156Z,1011.98
2023-01-29T02:11:11.350Z,1011.97
2023-01-29T02:12:11.338Z,1011.97
2023-01-29T02:13:11.320Z,1011.99
2023-01-29T02:14:11.315Z,1011.99
2023-01-29T02:15:11.282Z,1011.95
2023-01-29T02:16:11.267Z,1011.94
2023-01-29T02:17:11.278Z,1011.93
2023-01-29T02:18:11.251Z,1011.92
2023-01-29T02:19:11.235Z,1011.92
2023-01-29T02:20:11.228Z,1011.92
2023-01-29T02:21:11.228Z,1011.90
2023-01-29T02:22:11.209Z,1011.96
2023-01-29T02:23:11.179Z,1011.97
2023-01-29T02:24:11.272Z,1011.95
2023-01-29T02:25:11.157Z,1011.96
2023-01-29T02:26:11.376Z,1011.95
2023-01-29T02:27:11.165Z,1012.05
2023-01-29T02:28:11.117Z,1011.98
2023-01-29T02:29:11.113Z,1011.94
2023-01-29T02:30:11.113Z,1012.00
2023-01-29T02:31:11.119Z,1012.00
2023-01-29T02:32:11.068Z,1012.03
2023-01-29T02:33:11.091Z,1012.05
2023-01-29T02:34:11.034Z,1012.03
2023-01-29T02:35:11.031Z,1012.08
2023-01-29T02:36:11.008Z,1012.05
2023-01-29T02:37:11.029Z,1012.11
2023-01-29T02:38:11.227Z,1012.12
2023-01-29T02:39:10.988Z,1012.12
2023-01-29T02:40:10.958Z,1012.12
2023-01-29T02:41:10.965Z,1012.08
2023-01-29T02:42:10.948Z,1012.02
2023-01-29T02:43:10.938Z,1012.07
2023-01-29T02:44:10.908Z,1012.06
2023-01-29T02:45:10.921Z,1012.09
2023-01-29T02:46:10.955Z,1012.13
2023-01-29T02:47:10.893Z,1012.09
2023-01-29T02:48:10.877Z,1012.10
2023-01-29T02:49:10.863Z,1012.10
2023-01-29T02:50:10.852Z,1012.05
2023-01-29T02:51:10.833Z,1012.07
2023-01-29T02:52:10.852Z,1012.04
2023-01-29T02:53:10.809Z,1011.98
2023-01-29T02:54:10.799Z,1011.99
2023-01-29T02:55:10.799Z,1011.99
2023-01-29T02:56:10.762Z,1012.03
2023-01-29T02:57:10.785Z,1012.09
2023-01-29T02:58:10.740Z,1012.07
2023-01-29T02:59:10.732Z,1012.07
2023-01-29T03:00:10.718Z,1012.12
2023-01-29T03:01:10.755Z,1012.12
2023-01-29T03:02:10.715Z,1012.12
2023-01-29T03:03:10.683Z,1012.11
2023-01-29T03:04:10.689Z,1012.09
2023-01-29T03:05:10.664Z,1012.07
2023-01-29T03:06:10.651Z,1012.07
2023-01-29T03:07:10.665Z,1012.02
2023-01-29T03:08:10.632Z,1012.02
2023-01-29T03:09:10.613Z,1012.03
2023-01-29T03:10:10.592Z,1012.00
2023-01-29T03:11:10.581Z,1011.91
2023-01-29T03:12:10.600Z,1011.93
2023-01-29T03:13:10.571Z,1011.93
2023-01-29T03:14:10.555Z,1011.95
2023-01-29T03:15:10.531Z,1011.92
2023-01-29T03:16:10.547Z,1011.91
2023-01-29T03:17:10.511Z,1011.85
2023-01-29T03:18:10.501Z,1011.88
2023-01-29T03:19:10.487Z,1011.86
2023-01-29T03:20:10.471Z,1011.88
2023-01-29T03:21:10.455Z,1012.00
2023-01-29T03:22:10.459Z,1011.91
2023-01-29T03:23:10.456Z,1011.94
2023-01-29T03:24:10.434Z,1011.90
2023-01-29T03:25:10.425Z,1011.89
2023-01-29T03:26:10.434Z,1011.91
2023-01-29T03:27:10.413Z,1011.89
2023-01-29T03:28:10.377Z,1011.89
2023-01-29T03:29:10.362Z,1011.84
2023-01-29T03:30:10.343Z,1011.84
2023-01-29T03:31:10.594Z,1011.88
2023-01-29T03:32:10.360Z,1011.85
2023-01-29T03:33:10.318Z,1011.87
2023-01-29T03:34:10.300Z,1011.84
2023-01-29T03:35:10.291Z,1011.86
2023-01-29T03:36:10.263Z,1011.84
2023-01-29T03:37:10.274Z,1011.91
2023-01-29T03:38:10.253Z,1011.93
2023-01-29T03:39:10.244Z,1011.91
2023-01-29T03:40:10.214Z,1011.93
2023-01-29T03:41:10.224Z,1011.90
2023-01-29T03:42:10.207Z,1011.91
2023-01-29T03:43:10.203Z,1011.96
2023-01-29T03:44:10.179Z,1011.90
2023-01-29T03:45:10.178Z,1011.88
2023-01-29T03:46:10.219Z,1011.85
2023-01-29T03:47:10.163Z,1011.83
2023-01-29T03:48:11.074Z,1011.84
2023-01-29T03:49:10.126Z,1011.81
2023-01-29T03:50:10.096Z,1011.84
2023-01-29T03:51:10.094Z,1011.87
2023-01-29T03:52:10.089Z,1011.86
2023-01-29T03:53:10.067Z,1011.83
2023-01-29T03:54:10.048Z,1011.79
2023-01-29T03:55:10.036Z,1011.78
2023-01-29T03:56:10.022Z,1011.72
2023-01-29T03:57:10.020Z,1011.75
2023-01-29T03:58:10.000Z,1011.75
2023-01-29T03:59:10.017Z,1011.74
2023-01-29T04:00:09.988Z,1011.76
2023-01-29T04:01:09.999Z,1011.75
2023-01-29T04:02:09.984Z,1011.75
2023-01-29T04:03:10.914Z,1011.77
2023-01-29T04:04:09.950Z,1011.72
2023-01-29T04:05:09.916Z,1011.74
2023-01-29T04:06:10.055Z,1011.77
2023-01-29T04:07:09.917Z,1011.76
2023-01-29T04:08:09.876Z,1011.78
2023-01-29T04:09:09.867Z,1011.79
2023-01-29T04:10:09.855Z,1011.80
2023-01-29T04:11:09.867Z,1011.74
2023-01-29T04:12:09.855Z,1011.76
2023-01-29T04:13:09.813Z,1011.75
2023-01-29T04:14:09.829Z,1011.74
2023-01-29T04:15:10.750Z,1011.74
2023-01-29T04:16:09.844Z,1011.74
2023-01-29T04:17:09.788Z,1011.69
2023-01-29T04:18:09.758Z,1011.72
2023-01-29T04:19:09.753Z,1011.67
2023-01-29T04:20:09.726Z,1011.71
2023-01-29T04:21:09.716Z,1011.60
2023-01-29T04:22:09.718Z,1011.62
2023-01-29T04:23:09.711Z,1011.63
2023-01-29T04:24:09.702Z,1011.66
2023-01-29T04:25:09.696Z,1011.62
2023-01-29T04:26:09.666Z,1011.60
2023-01-29T04:27:09.658Z,1011.60
2023-01-29T04:28:10.585Z,1011.58
2023-01-29T04:29:09.618Z,1011.62
2023-01-29T04:30:09.611Z,1011.59
2023-01-29T04:31:09.634Z,1011.59
2023-01-29T04:32:09.659Z,1011.60
2023-01-29T04:33:09.561Z,1011.56
2023-01-29T04:34:09.569Z,1011.54
2023-01-29T04:35:09.539Z,1011.51
2023-01-29T04:36:09.526Z,1011.49
2023-01-29T04:37:09.542Z,1011.48
2023-01-29T04:38:09.510Z,1011.46
2023-01-29T04:39:11.117Z,1011.44
2023-01-29T04:40:10.439Z,1011.36
2023-01-29T04:41:09.479Z,1011.38
2023-01-29T04:42:09.466Z,1011.32
2023-01-29T04:43:10.392Z,1011.36
2023-01-29T04:44:09.423Z,1011.33
2023-01-29T04:45:09.418Z,1011.31
2023-01-29T04:46:09.402Z,1011.31
2023-01-29T04:47:09.779Z,1011.31
2023-01-29T04:48:09.384Z,1011.37
2023-01-29T04:49:09.373Z,1011.34
2023-01-29T04:50:09.350Z,1011.35
2023-01-29T04:51:09.350Z,1011.32
2023-01-29T04:52:09.388Z,1011.31
2023-01-29T04:53:09.321Z,1011.32
2023-01-29T04:54:09.291Z,1011.33
2023-01-29T04:55:09.299Z,1011.26
2023-01-29T04:56:09.284Z,1011.28
2023-01-29T04:57:09.276Z,1011.31
2023-01-29T04:58:09.263Z,1011.27
2023-01-29T04:59:09.243Z,1011.34
2023-01-29T05:00:09.227Z,1011.31
2023-01-29T05:01:09.219Z,1011.24
2023-01-29T05:02:09.213Z,1011.25
2023-01-29T05:03:09.202Z,1011.24
2023-01-29T05:04:09.188Z,1011.22
2023-01-29T05:05:09.522Z,1011.19
2023-01-29T05:06:09.163Z,1011.14
2023-01-29T05:07:09.177Z,1011.15
2023-01-29T05:08:09.156Z,1011.15
2023-01-29T05:09:09.365Z,1011.09
2023-01-29T05:10:09.118Z,1011.12
2023-01-29T05:11:09.094Z,1011.05
2023-01-29T05:12:09.110Z,1011.04
2023-01-29T05:13:09.067Z,1011.04
2023-01-29T05:14:09.054Z,1011.07
2023-01-29T05:15:09.038Z,1011.04
2023-01-29T05:16:09.080Z,1011.08
2023-01-29T05:17:09.023Z,1011.04
2023-01-29T05:18:09.009Z,1011.06
2023-01-29T05:19:09.001Z,1011.04
2023-01-29T05:20:08.972Z,1011.07
2023-01-29T05:21:08.978Z,1011.07
2023-01-29T05:22:08.971Z,1011.05
2023-01-29T05:23:08.954Z,1011.04
2023-01-29T05:24:08.987Z,1011.00
2023-01-29T05:25:08.924Z,1011.00
2023-01-29T05:26:08.908Z,1010.96
2023-01-29T05:27:08.893Z,1010.93
2023-01-29T05:28:08.882Z,1010.88
2023-01-29T05:29:08.871Z,1010.88
2023-01-29T05:30:08.846Z,1010.82
2023-01-29T05:31:08.894Z,1010.83
2023-01-29T05:32:08.852Z,1010.79
2023-01-29T05:33:10.317Z,1010.79
2023-01-29T05:34:08.825Z,1010.82
2023-01-29T05:35:08.796Z,1010.78
2023-01-29T05:36:08.777Z,1010.82
2023-01-29T05:37:09.051Z,1010.88
2023-01-29T05:38:08.754Z,1010.85
2023-01-29T05:39:08.746Z,1010.84
2023-01-29T05:40:08.737Z,1010.91
2023-01-29T05:41:08.726Z,1010.91
2023-01-29T05:42:08.706Z,1010.96
2023-01-29T05:43:08.692Z,1010.99
2023-01-29T05:44:08.677Z,1010.99
2023-01-29T05:45:08.719Z,1010.96
2023-01-29T05:46:08.653Z,1010.96
2023-01-29T05:47:08.644Z,1010.90
2023-01-29T05:48:08.630Z,1010.95
2023-01-29T05:49:08.621Z,1010.94
2023-01-29T05:50:08.606Z,1010.99
2023-01-29T05:51:08.588Z,1010.91
2023-01-29T05:52:08.601Z,1010.94
2023-01-29T05:53:08.580Z,1010.96
2023-01-29T05:54:09.919Z,1010.91
2023-01-29T05:55:16.990Z,1010.92
2023-01-29T06:01:04.321Z,1010.90
2023-01-29T06:01:09.091Z,1010.92
2023-01-29T06:02:09.388Z,1010.87
2023-01-29T06:03:09.083Z,1010.83
2023-01-29T06:04:09.050Z,1010.82
2023-01-29T06:05:09.054Z,1010.78
2023-01-29T06:06:09.044Z,1010.74
2023-01-29T06:07:09.023Z,1010.79
2023-01-29T06:08:09.022Z,1010.77
2023-01-29T06:09:08.999Z,1010.78
2023-01-29T06:10:08.980Z,1010.80
2023-01-29T06:11:08.970Z,1010.80
2023-01-29T06:12:08.970Z,1010.79
2023-01-29T06:13:08.976Z,1010.83
2023-01-29T06:14:08.937Z,1010.83
2023-01-29T06:15:08.916Z,1010.87
2023-01-29T06:16:08.935Z,1010.86
2023-01-29T06:17:08.899Z,1010.91
2023-01-29T06:18:08.889Z,1010.94
2023-01-29T06:19:08.874Z,1010.90
2023-01-29T06:20:08.853Z,1010.92
2023-01-29T06:21:08.841Z,1010.92
2023-01-29T06:22:08.857Z,1010.95
2023-01-29T06:23:08.818Z,1010.95
2023-01-29T06:24:08.833Z,1010.95
2023-01-29T06:25:08.791Z,1010.99
2023-01-29T06:26:08.793Z,1011.04
2023-01-29T06:27:08.783Z,1011.03
2023-01-29T06:28:08.766Z,1011.04
2023-01-29T06:29:08.743Z,1011.08
2023-01-29T06:30:08.735Z,1011.09
2023-01-29T06:31:26.545Z,1011.09
2023-01-29T06:32:09.796Z,1011.09
2023-01-29T06:33:08.683Z,1011.08
2023-01-29T06:34:08.714Z,1011.12
2023-01-29T06:35:08.663Z,1011.09
2023-01-29T06:36:08.659Z,1011.11
2023-01-29T06:37:08.657Z,1011.11
2023-01-29T06:38:08.863Z,1011.11
2023-01-29T06:39:08.615Z,1011.10
2023-01-29T06:40:08.613Z,1011.15
2023-01-29T06:41:08.588Z,1011.17
2023-01-29T06:42:08.593Z,1011.22
2023-01-29T06:43:08.561Z,1011.27
2023-01-29T06:44:08.553Z,1011.29
2023-01-29T06:45:08.543Z,1011.31
2023-01-29T06:46:08.535Z,1011.33
2023-01-29T06:47:08.530Z,1011.34
2023-01-29T06:48:08.507Z,1011.35
2023-01-29T06:49:08.485Z,1011.34
2023-01-29T06:50:08.479Z,1011.44
2023-01-29T06:51:08.475Z,1011.42
2023-01-29T06:52:08.481Z,1011.53
2023-01-29T06:53:08.434Z,1011.51
2023-01-29T06:54:08.429Z,1011.59
2023-01-29T06:55:08.424Z,1011.60
2023-01-29T06:56:08.405Z,1011.73
2023-01-29T06:57:08.395Z,1011.68
2023-01-29T06:58:08.395Z,1011.72
2023-01-29T06:59:08.379Z,1011.70
2023-01-29T07:00:08.355Z,1011.74
2023-01-29T07:01:08.394Z,1011.74
2023-01-29T07:02:08.390Z,1011.76
2023-01-29T07:03:08.327Z,1011.79
2023-01-29T07:04:08.330Z,1011.82
2023-01-29T07:05:08.296Z,1011.81
2023-01-29T07:06:08.285Z,1011.79
2023-01-29T07:07:08.280Z,1011.72
2023-01-29T07:08:08.251Z,1011.76
2023-01-29T07:09:08.240Z,1011.75
2023-01-29T07:10:08.237Z,1011.76
2023-01-29T07:11:08.451Z,1011.78
2023-01-29T07:12:08.223Z,1011.81
2023-01-29T07:13:08.192Z,1011.85
2023-01-29T07:14:08.176Z,1011.84
2023-01-29T07:15:08.173Z,1011.83
2023-01-29T07:16:08.212Z,1011.83
2023-01-29T07:17:08.164Z,1011.85
2023-01-29T07:18:08.138Z,1011.89
2023-01-29T07:19:08.118Z,1011.92
2023-01-29T07:20:08.122Z,1011.91
2023-01-29T07:21:08.089Z,1011.91
2023-01-29T07:22:08.101Z,1011.92
2023-01-29T07:23:08.082Z,1011.95
2023-01-29T07:24:08.092Z,1011.96
2023-01-29T07:25:08.048Z,1012.05
2023-01-29T07:26:08.043Z,1012.02
2023-01-29T07:27:08.032Z,1012.07
2023-01-29T07:28:08.007Z,1012.03
2023-01-29T07:29:07.998Z,1011.96
2023-01-29T07:30:07.994Z,1012.01
2023-01-29T07:31:08.069Z,1011.97
2023-01-29T07:32:08.055Z,1011.93
2023-01-29T07:33:07.955Z,1011.97
2023-01-29T07:34:07.983Z,1011.94
2023-01-29T07:35:07.917Z,1012.00
2023-01-29T07:36:07.923Z,1011.99
2023-01-29T07:37:07.922Z,1012.03
2023-01-29T07:38:07.893Z,1012.01
2023-01-29T07:39:07.883Z,1012.00
2023-01-29T07:40:08.686Z,1011.96
2023-01-29T07:41:07.880Z,1011.94
2023-01-29T07:42:07.840Z,1011.93
2023-01-29T07:43:07.847Z,1011.93
2023-01-29T07:44:07.807Z,1011.89
2023-01-29T07:45:07.809Z,1011.84
2023-01-29T07:46:07.822Z,1011.85
2023-01-29T07:47:07.782Z,1011.86
2023-01-29T07:48:07.757Z,1011.86
2023-01-29T07:49:07.760Z,1011.91
2023-01-29T07:50:07.743Z,1011.90
2023-01-29T07:51:07.719Z,1011.87
2023-01-29T07:52:07.714Z,1011.88
2023-01-29T07:53:09.191Z,1011.82
2023-01-29T07:54:07.685Z,1011.82
2023-01-29T07:55:07.663Z,1011.75
2023-01-29T07:56:08.054Z,1011.79
2023-01-29T07:57:07.656Z,1011.68
2023-01-29T07:58:07.636Z,1011.67
2023-01-29T07:59:07.624Z,1011.66
2023-01-29T08:00:07.632Z,1011.65
2023-01-29T08:01:07.646Z,1011.58
2023-01-29T08:02:07.678Z,1011.54
2023-01-29T08:03:07.579Z,1011.49
2023-01-29T08:04:07.575Z,1011.43
2023-01-29T08:05:07.542Z,1011.36
2023-01-29T08:06:07.552Z,1011.34
2023-01-29T08:07:07.529Z,1011.31
2023-01-29T08:08:08.077Z,1011.30
2023-01-29T08:09:07.503Z,1011.25
2023-01-29T08:10:07.492Z,1011.23
2023-01-29T08:11:07.484Z,1011.22
2023-01-29T08:12:07.505Z,1011.23
2023-01-29T08:13:07.465Z,1011.27
2023-01-29T08:14:07.442Z,1011.31
2023-01-29T08:15:07.693Z,1011.37
2023-01-29T08:16:07.500Z,1011.33
2023-01-29T08:17:07.413Z,1011.34
2023-01-29T08:18:07.719Z,1011.34
2023-01-29T08:19:07.385Z,1011.26
2023-01-29T08:20:07.392Z,1011.18
2023-01-29T08:21:07.347Z,1011.12
2023-01-29T08:22:07.367Z,1011.13
2023-01-29T08:23:07.341Z,1011.15
2023-01-29T08:24:07.340Z,1011.17
2023-01-29T08:25:21.097Z,1011.20
2023-01-29T08:26:08.319Z,1011.21
2023-01-29T08:27:07.290Z,1011.25
2023-01-29T08:28:07.268Z,1011.22
2023-01-29T08:29:07.251Z,1011.25
2023-01-29T08:30:07.235Z,1011.15
2023-01-29T08:31:07.268Z,1011.12
2023-01-29T08:32:07.234Z,1011.05
2023-01-29T08:33:07.188Z,1011.11
2023-01-29T08:34:07.206Z,1011.11
2023-01-29T08:35:07.173Z,1011.11
2023-01-29T08:36:07.168Z,1011.14
2023-01-29T08:37:07.186Z,1011.20
2023-01-29T08:38:07.149Z,1011.17
2023-01-29T08:39:07.126Z,1011.15
2023-01-29T08:40:07.117Z,1011.14
2023-01-29T08:41:07.100Z,1011.09
2023-01-29T08:42:07.130Z,1011.13
2023-01-29T08:43:09.004Z,1011.20
2023-01-29T08:44:07.068Z,1011.25
2023-01-29T08:45:07.049Z,1011.38
2023-01-29T08:46:07.086Z,1011.39
2023-01-29T08:47:07.038Z,1011.46
2023-01-29T08:48:07.046Z,1011.49
2023-01-29T08:49:07.000Z,1011.52
2023-01-29T08:50:07.010Z,1011.55
2023-01-29T08:51:06.970Z,1011.59
2023-01-29T08:52:06.978Z,1011.57
2023-01-29T08:53:06.959Z,1011.53
2023-01-29T08:54:06.939Z,1011.55
2023-01-29T08:55:06.930Z,1011.46
2023-01-29T08:56:06.910Z,1011.44
2023-01-29T08:57:06.898Z,1011.37
2023-01-29T08:58:06.895Z,1011.39
2023-01-29T08:59:06.871Z,1011.43
2023-01-29T09:00:06.875Z,1011.39
2023-01-29T09:01:06.917Z,1011.39
2023-01-29T09:02:06.882Z,1011.43
2023-01-29T09:03:06.817Z,1011.48
2023-01-29T09:04:06.829Z,1011.49
2023-01-29T09:05:06.799Z,1011.61
2023-01-29T09:06:06.800Z,1011.62
2023-01-29T09:07:06.777Z,1011.67
2023-01-29T09:08:06.764Z,1011.65
2023-01-29T09:09:06.748Z,1011.67
2023-01-29T09:10:06.741Z,1011.63
2023-01-29T09:11:06.725Z,1011.66
2023-01-29T09:12:06.732Z,1011.60
2023-01-29T09:13:06.704Z,1011.59
2023-01-29T09:14:06.686Z,1011.52
2023-01-29T09:15:06.684Z,1011.49
2023-01-29T09:16:06.680Z,1011.42
2023-01-29T09:17:06.663Z,1011.36
2023-01-29T09:18:06.654Z,1011.35
2023-01-29T09:19:06.629Z,1011.33
2023-01-29T09:20:06.601Z,1011.41
2023-01-29T09:21:06.607Z,1011.45
2023-01-29T09:22:06.611Z,1011.44
2023-01-29T09:23:06.574Z,1011.45
2023-01-29T09:24:06.562Z,1011.46
2023-01-29T09:25:06.864Z,1011.41
2023-01-29T09:26:06.533Z,1011.40
2023-01-29T09:27:06.568Z,1011.41
2023-01-29T09:28:06.516Z,1011.42
2023-01-29T09:29:06.540Z,1011.37
2023-01-29T09:30:06.492Z,1011.28
2023-01-29T09:31:06.627Z,1011.25
2023-01-29T09:32:07.030Z,1011.19
2023-01-29T09:33:06.476Z,1011.15
2023-01-29T09:34:06.443Z,1011.09
2023-01-29T09:35:06.439Z,1011.01
2023-01-29T09:36:06.418Z,1011.05
2023-01-29T09:37:06.424Z,1010.96
2023-01-29T09:38:06.404Z,1010.97
2023-01-29T09:39:06.390Z,1010.90
2023-01-29T09:40:06.372Z,1010.88
2023-01-29T09:41:06.356Z,1010.84
2023-01-29T09:42:06.346Z,1010.82
2023-01-29T09:43:06.340Z,1010.91
2023-01-29T09:44:06.314Z,1010.85
2023-01-29T09:45:06.302Z,1010.87
2023-01-29T09:46:06.336Z,1010.87
2023-01-29T09:47:06.293Z,1010.89
2023-01-29T09:48:06.271Z,1010.86
2023-01-29T09:49:06.334Z,1010.81
2023-01-29T09:50:06.249Z,1010.81
2023-01-29T09:51:06.238Z,1010.82
2023-01-29T09:52:06.220Z,1010.82
2023-01-29T09:53:06.246Z,1010.76
2023-01-29T09:54:06.197Z,1010.82
2023-01-29T09:55:06.189Z,1010.84
2023-01-29T09:56:06.164Z,1010.87
2023-01-29T09:57:06.478Z,1010.87
2023-01-29T09:58:06.154Z,1010.87
2023-01-29T09:59:06.148Z,1010.83
2023-01-29T10:00:06.125Z,1010.84
2023-01-29T10:01:06.269Z,1010.84
2023-01-29T10:02:06.207Z,1010.87
2023-01-29T10:04:06.107Z,1010.90
2023-01-29T10:05:06.060Z,1010.90
2023-01-29T10:06:06.050Z,1010.84
2023-01-29T10:07:06.051Z,1010.82
2023-01-29T10:08:06.015Z,1010.83
2023-01-29T10:09:06.244Z,1010.83
2023-01-29T10:10:05.997Z,1010.83
2023-01-29T10:11:05.988Z,1010.78
2023-01-29T10:12:05.996Z,1010.78
2023-01-29T10:13:05.963Z,1010.78
2023-01-29T10:14:05.959Z,1010.71
2023-01-29T10:15:05.928Z,1010.72
2023-01-29T10:16:05.932Z,1010.72
2023-01-29T10:17:06.049Z,1010.71
2023-01-29T10:18:06.706Z,1010.71
2023-01-29T10:19:05.890Z,1010.67
2023-01-29T10:20:05.894Z,1010.61
2023-01-29T10:21:05.868Z,1010.52
2023-01-29T10:22:05.879Z,1010.53
2023-01-29T10:23:05.843Z,1010.51
2023-01-29T10:24:05.840Z,1010.57
2023-01-29T10:25:05.831Z,1010.58
2023-01-29T10:26:05.801Z,1010.57
2023-01-29T10:27:05.802Z,1010.56
2023-01-29T10:28:05.781Z,1010.55
2023-01-29T10:29:05.772Z,1010.51
2023-01-29T10:30:05.749Z,1010.47
2023-01-29T10:31:05.811Z,1010.55
2023-01-29T10:32:06.155Z,1010.48
2023-01-29T10:33:05.730Z,1010.49
2023-01-29T10:34:05.723Z,1010.47
2023-01-29T10:35:05.692Z,1010.40
2023-01-29T10:36:05.677Z,1010.37
2023-01-29T10:37:05.792Z,1010.38
2023-01-29T10:38:05.662Z,1010.36
2023-01-29T10:39:05.664Z,1010.34
2023-01-29T10:40:05.643Z,1010.35
2023-01-29T10:41:05.890Z,1010.34
2023-01-29T10:42:05.620Z,1010.34
2023-01-29T10:43:05.604Z,1010.29
2023-01-29T10:44:05.592Z,1010.26
2023-01-29T10:45:05.589Z,1010.23
2023-01-29T10:46:05.579Z,1010.25
2023-01-29T10:47:05.599Z,1010.18
2023-01-29T10:48:05.543Z,1010.18
2023-01-29T10:49:05.530Z,1010.23
2023-01-29T10:50:05.505Z,1010.22
2023-01-29T10:51:05.502Z,1010.11
2023-01-29T10:52:05.495Z,1010.07
2023-01-29T10:53:05.474Z,1010.03
2023-01-29T10:54:05.455Z,1010.00
2023-01-29T10:55:05.467Z,1009.98
2023-01-29T10:56:10.866Z,1009.97
2023-01-29T10:57:06.455Z,1010.02
2023-01-29T10:58:05.414Z,1010.03
2023-01-29T10:59:05.450Z,1010.02
2023-01-29T11:00:05.408Z,1010.09
2023-01-29T11:01:05.387Z,1010.07
2023-01-29T11:02:05.367Z,1010.14
2023-01-29T11:03:10.109Z,1010.12
2023-01-29T11:04:06.351Z,1010.07
2023-01-29T11:05:05.326Z,1010.12
2023-01-29T11:06:05.310Z,1010.13
2023-01-29T11:07:05.310Z,1010.14
2023-01-29T11:08:05.305Z,1010.15
2023-01-29T11:09:05.290Z,1010.13
2023-01-29T11:10:05.267Z,1010.03
2023-01-29T11:11:05.284Z,1010.03
2023-01-29T11:12:05.247Z,1009.98
2023-01-29T11:13:05.242Z,1009.89
2023-01-29T11:14:05.219Z,1009.94
2023-01-29T11:15:05.216Z,1009.87
2023-01-29T11:16:05.188Z,1009.85
2023-01-29T11:17:05.292Z,1009.85
2023-01-29T11:18:05.166Z,1009.84
2023-01-29T11:19:05.162Z,1009.83
2023-01-29T11:20:05.144Z,1009.82
2023-01-29T11:21:05.143Z,1009.80
2023-01-29T11:22:05.167Z,1009.77
2023-01-29T11:23:06.757Z,1009.71
2023-01-29T11:24:05.104Z,1009.72
2023-01-29T11:25:05.088Z,1009.75
2023-01-29T11:26:05.065Z,1009.71
2023-01-29T11:27:05.067Z,1009.74
2023-01-29T11:28:05.045Z,1009.70
2023-01-29T11:29:05.036Z,1009.67
2023-01-29T11:30:05.053Z,1009.62
2023-01-29T11:31:05.043Z,1009.62
2023-01-29T11:32:04.999Z,1009.59
2023-01-29T11:33:04.984Z,1009.54
2023-01-29T11:34:04.982Z,1009.55
2023-01-29T11:35:05.183Z,1009.57
2023-01-29T11:36:04.942Z,1009.53
2023-01-29T11:37:04.954Z,1009.47
2023-01-29T11:38:04.955Z,1009.48
2023-01-29T11:39:04.912Z,1009.41
2023-01-29T11:40:04.900Z,1009.39
2023-01-29T11:41:04.889Z,1009.35
2023-01-29T11:42:04.887Z,1009.36
2023-01-29T11:43:04.862Z,1009.36
2023-01-29T11:44:04.868Z,1009.39
2023-01-29T11:45:04.843Z,1009.32
2023-01-29T11:46:04.839Z,1009.36
2023-01-29T11:47:04.829Z,1009.35
2023-01-29T11:48:04.808Z,1009.24
2023-01-29T11:49:14.433Z,1009.23
2023-01-29T11:50:05.774Z,1009.27
2023-01-29T11:51:06.458Z,1009.19
2023-01-29T11:52:04.759Z,1009.26
2023-01-29T11:53:04.744Z,1009.27
2023-01-29T11:54:04.736Z,1009.28
2023-01-29T11:55:04.733Z,1009.23
2023-01-29T11:56:04.853Z,1009.20
2023-01-29T11:57:04.913Z,1009.18
2023-01-29T11:58:04.674Z,1009.17
2023-01-29T11:59:04.684Z,1009.06
2023-01-29T12:00:04.660Z,1009.14
2023-01-29T12:01:04.667Z,1009.12
2023-01-29T12:02:04.626Z,1009.07
2023-01-29T12:03:04.617Z,1009.08
2023-01-29T12:04:04.630Z,1009.04
2023-01-29T12:05:04.606Z,1009.01
2023-01-29T12:06:04.650Z,1008.99
2023-01-29T12:07:04.596Z,1008.99
2023-01-29T12:08:04.573Z,1009.00
2023-01-29T12:09:04.545Z,1008.97
2023-01-29T12:10:04.528Z,1009.02